createdAt,value
2019-01-10T00:00:11.567Z,101852.33
2019-01-10T00:02:40.009Z,101861.17
2019-01-10T00:05:10.510Z,101855.17
2019-01-10T00:07:38.941Z,101856.73
2019-01-10T00:10:10.150Z,101860.09
2019-01-10T00:12:39.531Z,101866.38
2019-01-10T00:15:11.045Z,101867.45
2019-01-10T00:17:39.487Z,101872.78
2019-01-10T00:20:10.754Z,101878.18
2019-01-10T00:22:39.248Z,101878.35
2019-01-10T00:25:10.159Z,101872.63
2019-01-10T00:27:38.588Z,101873.83
2019-01-10T00:30:10.365Z,101877.07
2019-01-10T00:32:38.797Z,101872.63
2019-01-10T00:35:08.800Z,101875.95
2019-01-10T00:37:37.241Z,101883.03
2019-01-10T00:40:09.116Z,101880.48
2019-01-10T00:42:37.564Z,101881.16
2019-01-10T00:45:11.454Z,101889.80
2019-01-10T00:47:39.889Z,101888.11
2019-01-10T00:50:11.856Z,101882.59
2019-01-10T00:52:40.294Z,101881.55
2019-01-10T00:55:08.750Z,101888.02
2019-01-10T00:57:37.259Z,101896.16
2019-01-10T01:00:17.256Z,101894.34
2019-01-10T01:02:45.708Z,101899.41
2019-01-10T01:05:15.195Z,101899.88
2019-01-10T01:07:43.699Z,101901.70
2019-01-10T01:10:23.860Z,101907.09
2019-01-10T01:12:58.431Z,101910.05
2019-01-10T01:15:22.480Z,101907.00
2019-01-10T01:17:50.918Z,101919.39
2019-01-10T01:20:24.154Z,101929.61
2019-01-10T01:22:52.765Z,101934.23
2019-01-10T01:25:21.205Z,101940.31
2019-01-10T01:27:49.680Z,101936.88
2019-01-10T01:30:23.514Z,101942.12
2019-01-10T01:32:52.044Z,101947.23
2019-01-10T01:35:21.739Z,101945.43
2019-01-10T01:37:50.328Z,101952.83
2019-01-10T01:40:20.205Z,101958.95
2019-01-10T01:42:48.668Z,101960.70
2019-01-10T01:45:18.652Z,101960.95
2019-01-10T01:47:47.656Z,101968.31
2019-01-10T01:50:20.960Z,101970.20
2019-01-10T01:52:49.812Z,101975.56
2019-01-10T01:55:18.244Z,101972.60
2019-01-10T01:57:46.777Z,101988.95
2019-01-10T02:00:18.087Z,101979.20
2019-01-10T02:02:46.548Z,101986.48
2019-01-10T02:05:15.358Z,101982.16
2019-01-10T02:07:43.826Z,101983.56
2019-01-10T02:10:15.763Z,101986.12
2019-01-10T02:12:44.281Z,101983.16
2019-01-10T02:15:14.247Z,101993.12
2019-01-10T02:17:48.870Z,101987.70
2019-01-10T02:20:13.443Z,101990.38
2019-01-10T02:22:41.900Z,101997.65
2019-01-10T02:25:12.489Z,101995.61
2019-01-10T02:27:40.942Z,102002.00
2019-01-10T02:30:15.174Z,101998.93
2019-01-10T02:32:43.635Z,102017.83
2019-01-10T02:35:12.339Z,102009.28
2019-01-10T02:37:40.809Z,102009.28
2019-01-10T02:40:09.822Z,102011.44
2019-01-10T02:42:38.289Z,102009.77
2019-01-10T02:45:12.277Z,102015.28
2019-01-10T02:47:40.747Z,102011.05
2019-01-10T02:50:12.341Z,102013.20
2019-01-10T02:52:40.813Z,102011.05
2019-01-10T02:55:09.978Z,102011.92
2019-01-10T02:57:38.467Z,102011.05
2019-01-10T03:00:11.245Z,102014.12
2019-01-10T03:02:39.724Z,102015.88
2019-01-10T03:05:08.907Z,102017.56
2019-01-10T03:07:37.364Z,102019.33
2019-01-10T03:10:11.731Z,102019.33
2019-01-10T03:12:40.196Z,102020.20
2019-01-10T03:15:09.005Z,102027.00
2019-01-10T03:17:37.540Z,102028.19
2019-01-10T03:20:09.293Z,102040.36
2019-01-10T03:22:37.760Z,102031.78
2019-01-10T03:25:07.746Z,102033.72
2019-01-10T03:27:36.204Z,102029.89
2019-01-10T03:30:07.955Z,102031.17
2019-01-10T03:32:36.427Z,102033.72
2019-01-10T03:35:06.894Z,102033.64
2019-01-10T03:37:35.384Z,102031.95
2019-01-10T03:40:06.718Z,102035.19
2019-01-10T03:42:35.187Z,102034.05
2019-01-10T03:45:04.596Z,102032.56
2019-01-10T03:47:33.070Z,102036.31
2019-01-10T03:50:01.505Z,102042.45
2019-01-10T03:52:29.962Z,102037.52
2019-01-10T03:54:58.397Z,102048.41
2019-01-10T03:57:26.869Z,102041.41
2019-01-10T03:59:55.302Z,102047.67
2019-01-10T04:02:23.734Z,102046.80
2019-01-10T04:04:52.201Z,102047.19
2019-01-10T04:07:20.641Z,102049.35
2019-01-10T04:09:49.110Z,102048.07
2019-01-10T04:12:17.545Z,102052.79
2019-01-10T04:14:46.005Z,102058.42
2019-01-10T04:17:14.450Z,102058.91
2019-01-10T04:19:42.923Z,102057.63
2019-01-10T04:22:11.356Z,102060.80
2019-01-10T04:24:39.821Z,102063.87
2019-01-10T04:27:08.262Z,102061.32
2019-01-10T04:29:36.736Z,102067.41
2019-01-10T04:32:05.177Z,102074.80
2019-01-10T04:34:33.646Z,102085.16
2019-01-10T04:37:02.207Z,102074.05
2019-01-10T04:39:30.631Z,102080.05
2019-01-10T04:41:59.073Z,102080.44
2019-01-10T04:44:27.533Z,102083.36
2019-01-10T04:46:55.979Z,102079.92
2019-01-10T04:49:24.521Z,102084.94
2019-01-10T04:51:52.984Z,102089.14
2019-01-10T04:54:21.445Z,102090.54
2019-01-10T04:56:49.886Z,102087.19
2019-01-10T04:59:18.348Z,102087.45
2019-01-10T05:01:46.790Z,102087.93
2019-01-10T05:04:15.259Z,102084.22
2019-01-10T05:06:43.697Z,102091.50
2019-01-10T05:09:12.164Z,102090.22
2019-01-10T05:11:40.616Z,102091.10
2019-01-10T05:14:16.409Z,102083.43
2019-01-10T05:16:39.336Z,102091.59
2019-01-10T05:19:07.794Z,102088.76
2019-01-10T05:21:36.246Z,102095.67
2019-01-10T05:24:04.962Z,102091.44
2019-01-10T05:26:33.406Z,102096.28
2019-01-10T05:29:01.875Z,102096.38
2019-01-10T05:31:30.312Z,102102.01
2019-01-10T05:34:02.499Z,102103.02
2019-01-10T05:36:31.123Z,102103.90
2019-01-10T05:38:59.597Z,102105.58
2019-01-10T05:41:28.033Z,102111.45
2019-01-10T05:43:56.494Z,102115.19
2019-01-10T05:46:24.930Z,102119.78
2019-01-10T05:48:53.665Z,102119.17
2019-01-10T05:51:22.105Z,102122.00
2019-01-10T05:53:50.545Z,102120.23
2019-01-10T05:56:19.002Z,102122.80
2019-01-10T05:58:47.440Z,102119.71
2019-01-10T06:01:15.916Z,102113.23
2019-01-10T06:03:52.947Z,102122.17
2019-01-10T06:06:14.545Z,102121.30
2019-01-10T06:08:42.979Z,102121.91
2019-01-10T06:11:11.447Z,102120.98
2019-01-10T06:13:39.882Z,102126.41
2019-01-10T06:16:08.345Z,102135.23
2019-01-10T06:18:36.787Z,102130.78
2019-01-10T06:21:05.250Z,102132.72
2019-01-10T06:23:34.270Z,102134.84
2019-01-10T06:26:02.737Z,102136.26
2019-01-10T06:28:31.176Z,102144.86
2019-01-10T06:30:59.719Z,102145.52
2019-01-10T06:33:28.154Z,102150.53
2019-01-10T06:35:56.620Z,102154.46
2019-01-10T06:38:25.060Z,102154.20
2019-01-10T06:40:53.521Z,102155.60
2019-01-10T06:43:22.129Z,102163.00
2019-01-10T06:45:50.599Z,102163.98
2019-01-10T06:48:19.036Z,102179.05
2019-01-10T06:50:47.504Z,102170.62
2019-01-10T06:53:15.941Z,102178.30
2019-01-10T06:55:44.402Z,102180.28
2019-01-10T06:58:12.934Z,102184.25
2019-01-10T07:00:41.404Z,102182.31
2019-01-10T07:03:09.844Z,102180.77
2019-01-10T07:05:38.305Z,102183.02
2019-01-10T07:08:06.745Z,102190.82
2019-01-10T07:10:35.205Z,102193.86
2019-01-10T07:13:03.651Z,102197.43
2019-01-10T07:15:32.114Z,102196.67
2019-01-10T07:18:00.557Z,102200.25
2019-01-10T07:20:29.021Z,102200.60
2019-01-10T07:22:57.532Z,102209.69
2019-01-10T07:25:25.999Z,102211.45
2019-01-10T07:27:56.588Z,102213.25
2019-01-10T07:30:35.588Z,102209.02
2019-01-10T07:32:56.124Z,102210.30
2019-01-10T07:35:25.784Z,102213.64
2019-01-10T07:37:55.041Z,102217.58
2019-01-10T07:40:23.481Z,102212.59
2019-01-10T07:42:52.387Z,102215.24
2019-01-10T07:45:24.796Z,102216.52
2019-01-10T07:47:53.247Z,102220.48
2019-01-10T07:50:29.637Z,102217.14
2019-01-10T07:52:58.096Z,102221.09
2019-01-10T07:55:26.530Z,102226.34
2019-01-10T07:57:54.990Z,102226.56
2019-01-10T08:00:23.423Z,102232.69
2019-01-10T08:02:51.937Z,102230.63
2019-01-10T08:05:20.876Z,102230.22
2019-01-10T08:07:49.344Z,102238.78
2019-01-10T08:10:17.783Z,102238.42
2019-01-10T08:12:46.689Z,102235.34
2019-01-10T08:15:17.968Z,102240.06
2019-01-10T08:17:46.433Z,102242.63
2019-01-10T08:20:14.991Z,102244.81
2019-01-10T08:22:43.591Z,102245.70
2019-01-10T08:25:12.134Z,102251.44
2019-01-10T08:27:40.599Z,102247.20
2019-01-10T08:30:15.350Z,102249.98
2019-01-10T08:32:43.813Z,102252.53
2019-01-10T08:35:13.692Z,102252.53
2019-01-10T08:37:42.265Z,102260.21
2019-01-10T08:40:11.070Z,102256.38
2019-01-10T08:42:39.538Z,102257.66
2019-01-10T08:45:10.023Z,102261.49
2019-01-10T08:47:38.472Z,102256.50
2019-01-10T08:50:10.316Z,102258.27
2019-01-10T08:52:38.773Z,102251.21
2019-01-10T08:55:08.286Z,102263.64
2019-01-10T08:57:36.757Z,102255.17
2019-01-10T09:00:11.130Z,102264.62
2019-01-10T09:02:39.589Z,102263.07
2019-01-10T09:05:08.469Z,102275.11
2019-01-10T09:07:36.938Z,102275.11
2019-01-10T09:10:08.553Z,102279.92
2019-01-10T09:12:37.021Z,102280.05
2019-01-10T09:15:08.101Z,102282.83
2019-01-10T09:17:36.564Z,102287.68
2019-01-10T09:20:08.173Z,102291.64
2019-01-10T09:22:36.626Z,102292.35
2019-01-10T09:25:05.807Z,102294.77
2019-01-10T09:27:34.337Z,102301.27
2019-01-10T09:30:02.784Z,102292.55
2019-01-10T09:32:31.248Z,102303.02
2019-01-10T09:34:59.694Z,102300.41
2019-01-10T09:37:28.156Z,102298.06
2019-01-10T09:39:56.590Z,102299.95
2019-01-10T09:42:25.056Z,102306.57
2019-01-10T09:44:53.497Z,102307.70
2019-01-10T09:47:21.964Z,102305.84
2019-01-10T09:49:50.404Z,102305.84
2019-01-10T09:52:18.845Z,102304.20
2019-01-10T09:54:47.308Z,102305.09
2019-01-10T09:57:15.890Z,102314.54
2019-01-10T09:59:44.352Z,102312.59
2019-01-10T10:02:12.793Z,102315.01
2019-01-10T10:04:41.262Z,102319.34
2019-01-10T10:07:09.700Z,102330.06
2019-01-10T10:09:38.169Z,102320.49
2019-01-10T10:12:06.766Z,102326.41
2019-01-10T10:14:35.272Z,102327.81
2019-01-10T10:17:03.665Z,102329.09
2019-01-10T10:19:32.135Z,102325.25
2019-01-10T10:22:00.575Z,102320.22
2019-01-10T10:24:29.041Z,102327.51
2019-01-10T10:26:57.830Z,102325.07
2019-01-10T10:29:26.299Z,102321.84
2019-01-10T10:31:54.739Z,102322.05
2019-01-10T10:34:23.197Z,102322.05
2019-01-10T10:36:51.700Z,102320.90
2019-01-10T10:39:20.165Z,102317.94
2019-01-10T10:41:48.598Z,102320.90
2019-01-10T10:44:17.059Z,102323.46
2019-01-10T10:46:45.501Z,102323.46
2019-01-10T10:49:13.969Z,102319.50
2019-01-10T10:51:42.414Z,102319.62
2019-01-10T10:54:10.881Z,102317.39
2019-01-10T10:56:39.321Z,102317.39
2019-01-10T10:59:07.850Z,102315.84
2019-01-10T11:01:36.314Z,102308.58
2019-01-10T11:04:05.424Z,102308.58
2019-01-10T11:06:33.865Z,102308.70
2019-01-10T11:09:09.090Z,102308.70
2019-01-10T11:11:32.497Z,102315.20
2019-01-10T11:14:00.966Z,102308.03
2019-01-10T11:16:29.405Z,102311.97
2019-01-10T11:18:57.869Z,102311.97
2019-01-10T11:21:26.311Z,102310.69
2019-01-10T11:23:54.767Z,102308.52
2019-01-10T11:26:23.211Z,102305.20
2019-01-10T11:28:51.984Z,102309.25
2019-01-10T11:31:20.433Z,102311.54
2019-01-10T11:33:48.898Z,102301.37
2019-01-10T11:36:17.330Z,102300.70
2019-01-10T11:38:45.872Z,102291.25
2019-01-10T11:41:14.307Z,102296.30
2019-01-10T11:43:42.747Z,102296.30
2019-01-10T11:46:19.218Z,102287.61
2019-01-10T11:48:41.372Z,102284.98
2019-01-10T11:51:09.843Z,102289.55
2019-01-10T11:53:38.280Z,102289.55
2019-01-10T11:56:07.017Z,102288.64
2019-01-10T11:58:35.463Z,102286.99
2019-01-10T12:01:04.177Z,102287.08
2019-01-10T12:03:32.611Z,102284.80
2019-01-10T12:06:01.077Z,102275.45
2019-01-10T12:08:29.582Z,102287.87
2019-01-10T12:10:58.061Z,102279.58
2019-01-10T12:13:26.501Z,102274.27
2019-01-10T12:15:54.968Z,102277.83
2019-01-10T12:18:23.409Z,102264.53
2019-01-10T12:20:51.866Z,102271.02
2019-01-10T12:23:20.380Z,102274.11
2019-01-10T12:25:48.843Z,102272.30
2019-01-10T12:28:17.275Z,102277.43
2019-01-10T12:30:45.895Z,102277.43
2019-01-10T12:33:14.331Z,102276.15
2019-01-10T12:35:42.864Z,102272.89
2019-01-10T12:38:11.305Z,102275.41
2019-01-10T12:40:39.768Z,102275.41
2019-01-10T12:43:08.482Z,102282.21
2019-01-10T12:45:37.204Z,102282.21
2019-01-10T12:48:05.647Z,102281.33
2019-01-10T12:50:34.381Z,102281.33
2019-01-10T12:53:02.883Z,102280.72
2019-01-10T12:55:31.352Z,102281.00
2019-01-10T12:57:59.794Z,102282.95
2019-01-10T13:00:28.263Z,102286.28
2019-01-10T13:02:57.276Z,102286.59
2019-01-10T13:05:25.742Z,102284.30
2019-01-10T13:08:03.162Z,102285.45
2019-01-10T13:10:24.374Z,102276.28
2019-01-10T13:12:52.813Z,102279.61
2019-01-10T13:15:23.621Z,102274.48
2019-01-10T13:17:52.128Z,102272.31
2019-01-10T13:20:20.666Z,102271.83
2019-01-10T13:22:49.105Z,102277.84
2019-01-10T13:25:19.184Z,102278.63
2019-01-10T13:27:47.986Z,102275.46
2019-01-10T13:30:21.136Z,102272.90
2019-01-10T13:32:49.863Z,102264.81
2019-01-10T13:35:18.304Z,102269.27
2019-01-10T13:37:46.798Z,102267.98
2019-01-10T13:40:16.017Z,102263.07
2019-01-10T13:42:44.507Z,102261.79
2019-01-10T13:45:14.579Z,102266.03
2019-01-10T13:47:44.849Z,102263.28
2019-01-10T13:50:19.128Z,102263.28
2019-01-10T13:52:47.766Z,102258.67
2019-01-10T13:55:18.144Z,102262.52
2019-01-10T13:57:46.682Z,102265.08
2019-01-10T14:00:20.825Z,102266.77
2019-01-10T14:02:49.374Z,102266.77
2019-01-10T14:05:17.787Z,102266.64
2019-01-10T14:07:46.427Z,102263.95
2019-01-10T14:10:16.669Z,102263.95
2019-01-10T14:12:45.422Z,102270.36
2019-01-10T14:15:17.001Z,102271.03
2019-01-10T14:17:45.537Z,102269.14
2019-01-10T14:20:14.549Z,102275.34
2019-01-10T14:22:43.082Z,102275.00
2019-01-10T14:25:11.791Z,102266.50
2019-01-10T14:27:40.525Z,102268.58
2019-01-10T14:30:18.361Z,102267.66
2019-01-10T14:32:46.831Z,102271.22
2019-01-10T14:35:15.446Z,102270.83
2019-01-10T14:37:43.905Z,102270.83
2019-01-10T14:40:12.914Z,102283.76
2019-01-10T14:42:41.376Z,102275.59
2019-01-10T14:45:15.377Z,102270.83
2019-01-10T14:47:43.842Z,102276.47
2019-01-10T14:50:13.022Z,102275.95
2019-01-10T14:52:41.488Z,102281.20
2019-01-10T14:55:13.027Z,102282.36
2019-01-10T14:57:41.489Z,102283.94
2019-01-10T15:00:13.243Z,102283.02
2019-01-10T15:02:41.778Z,102272.69
2019-01-10T15:05:10.282Z,102284.97
2019-01-10T15:07:38.741Z,102278.57
2019-01-10T15:10:08.928Z,102280.25
2019-01-10T15:12:37.382Z,102271.07
2019-01-10T15:15:09.233Z,102277.56
2019-01-10T15:17:37.698Z,102279.24
2019-01-10T15:20:09.309Z,102280.80
2019-01-10T15:22:37.895Z,102282.75
2019-01-10T15:25:06.573Z,102277.53
2019-01-10T15:27:35.033Z,102275.52
2019-01-10T15:32:33.825Z,102287.28
2019-01-10T15:35:02.261Z,102281.81
2019-01-10T15:37:30.724Z,102280.86
2019-01-10T15:39:59.167Z,102284.75
2019-01-10T15:42:27.736Z,102284.14
2019-01-10T15:44:56.177Z,102273.55
2019-01-10T15:47:24.640Z,102267.82
2019-01-10T15:49:53.082Z,102268.48
2019-01-10T15:52:21.543Z,102261.96
2019-01-10T15:54:49.974Z,102263.64
2019-01-10T15:57:19.169Z,102261.88
2019-01-10T15:59:47.662Z,102270.56
2019-01-10T16:02:16.105Z,102267.08
2019-01-10T16:04:44.578Z,102265.44
2019-01-10T16:07:13.013Z,102267.73
2019-01-10T16:09:41.480Z,102271.05
2019-01-10T16:12:09.915Z,102265.44
2019-01-10T16:14:38.375Z,102264.52
2019-01-10T16:17:06.877Z,102264.42
2019-01-10T16:19:35.344Z,102266.47
2019-01-10T16:22:03.774Z,102273.38
2019-01-10T16:24:32.243Z,102269.81
2019-01-10T16:27:00.683Z,102268.53
2019-01-10T16:29:29.150Z,102262.53
2019-01-10T16:31:57.582Z,102261.65
2019-01-10T16:34:26.047Z,102258.08
2019-01-10T16:36:54.485Z,102264.88
2019-01-10T16:39:22.943Z,102263.95
2019-01-10T16:41:51.388Z,102267.58
2019-01-10T16:44:19.858Z,102268.23
2019-01-10T16:46:48.297Z,102266.86
2019-01-10T16:49:16.754Z,102269.69
2019-01-10T16:51:45.203Z,102255.09
2019-01-10T16:54:13.671Z,102253.33
2019-01-10T16:56:42.110Z,102256.67
2019-01-10T16:59:10.654Z,102258.22
2019-01-10T17:01:39.094Z,102252.22
2019-01-10T17:04:07.559Z,102251.58
2019-01-10T17:06:38.400Z,102247.37
2019-01-10T17:09:08.103Z,102243.54
2019-01-10T17:11:36.545Z,102251.21
2019-01-10T17:14:05.555Z,102252.36
2019-01-10T17:16:34.220Z,102254.03
2019-01-10T17:19:02.748Z,102253.81
2019-01-10T17:21:31.195Z,102253.81
2019-01-10T17:23:59.662Z,102250.73
2019-01-10T17:26:28.101Z,102259.29
2019-01-10T17:28:56.564Z,102262.25
2019-01-10T17:31:25.005Z,102259.59
2019-01-10T17:33:53.472Z,102255.36
2019-01-10T17:36:21.906Z,102254.84
2019-01-10T17:38:50.373Z,102260.48
2019-01-10T17:41:18.813Z,102258.31
2019-01-10T17:43:47.422Z,102262.64
2019-01-10T17:46:15.853Z,102260.34
2019-01-10T17:48:44.300Z,102256.02
2019-01-10T17:51:12.759Z,102257.70
2019-01-10T17:53:41.193Z,102255.14
2019-01-10T17:56:09.662Z,102258.84
2019-01-10T17:58:38.107Z,102259.64
2019-01-10T18:01:06.735Z,102258.23
2019-01-10T18:03:40.061Z,102265.28
2019-01-10T18:06:05.531Z,102259.55
2019-01-10T18:08:33.975Z,102261.22
2019-01-10T18:11:02.443Z,102263.78
2019-01-10T18:13:30.874Z,102266.73
2019-01-10T18:15:59.339Z,102270.56
2019-01-10T18:18:27.783Z,102272.34
2019-01-10T18:20:56.377Z,102267.34
2019-01-10T18:23:24.810Z,102266.69
2019-01-10T18:25:53.265Z,102267.58
2019-01-10T18:28:21.705Z,102278.30
2019-01-10T18:30:50.165Z,102280.45
2019-01-10T18:33:18.704Z,102278.30
2019-01-10T18:35:47.172Z,102278.30
2019-01-10T18:38:15.611Z,102274.36
2019-01-10T18:40:44.070Z,102262.33
2019-01-10T18:43:12.521Z,102257.61
2019-01-10T18:45:40.984Z,102246.10
2019-01-10T18:48:09.425Z,102244.70
2019-01-10T18:50:37.888Z,102245.97
2019-01-10T18:53:06.334Z,102250.20
2019-01-10T18:55:34.807Z,102255.22
2019-01-10T18:58:03.241Z,102254.30
2019-01-10T19:00:31.710Z,102253.81
2019-01-10T19:03:00.394Z,102241.42
2019-01-10T19:05:28.856Z,102250.86
2019-01-10T19:07:57.473Z,102248.44
2019-01-10T19:10:25.942Z,102252.66
2019-01-10T19:12:54.378Z,102257.88
2019-01-10T19:15:23.020Z,102250.20
2019-01-10T19:17:51.459Z,102252.00
2019-01-10T19:20:22.634Z,102246.98
2019-01-10T19:22:51.319Z,102249.45
2019-01-10T19:25:19.776Z,102243.94
2019-01-10T19:27:48.221Z,102247.78
2019-01-10T19:30:19.326Z,102245.22
2019-01-10T19:32:47.772Z,102250.33
2019-01-10T19:35:16.277Z,102253.77
2019-01-10T19:37:44.713Z,102246.50
2019-01-10T19:40:16.449Z,102256.33
2019-01-10T19:42:44.922Z,102250.83
2019-01-10T19:45:16.200Z,102250.83
2019-01-10T19:47:44.673Z,102254.66
2019-01-10T19:50:18.304Z,102251.22
2019-01-10T19:52:47.850Z,102249.94
2019-01-10T19:55:18.025Z,102247.87
2019-01-10T19:57:46.488Z,102243.77
2019-01-10T20:00:26.681Z,102248.48
2019-01-10T20:02:55.152Z,102247.83
2019-01-10T20:05:23.665Z,102245.27
2019-01-10T20:07:52.114Z,102236.31
2019-01-10T20:10:20.574Z,102242.44
2019-01-10T20:12:50.211Z,102244.61
2019-01-10T20:15:18.649Z,102236.17
2019-01-10T20:17:47.286Z,102237.95
2019-01-10T20:20:27.537Z,102237.67
2019-01-10T20:22:57.942Z,102236.00
2019-01-10T20:25:26.455Z,102234.45
2019-01-10T20:27:54.993Z,102235.86
2019-01-10T20:30:23.434Z,102236.48
2019-01-10T20:32:51.900Z,102232.38
2019-01-10T20:35:20.340Z,102243.31
2019-01-10T20:37:48.801Z,102243.05
2019-01-10T20:40:19.058Z,102249.27
2019-01-10T20:42:47.533Z,102242.59
2019-01-10T20:45:16.213Z,102240.66
2019-01-10T20:47:45.118Z,102242.45
2019-01-10T20:50:15.512Z,102236.55
2019-01-10T20:52:44.241Z,102241.89
2019-01-10T20:55:14.765Z,102238.56
2019-01-10T20:57:43.473Z,102239.58
2019-01-10T21:00:26.364Z,102241.08
2019-01-10T21:02:55.554Z,102248.09
2019-01-10T21:05:24.288Z,102242.17
2019-01-10T21:07:53.473Z,102238.06
2019-01-10T21:10:23.812Z,102237.18
2019-01-10T21:12:52.487Z,102239.34
2019-01-10T21:15:23.734Z,102241.41
2019-01-10T21:17:52.245Z,102228.98
2019-01-10T21:20:20.789Z,102230.78
2019-01-10T21:22:49.579Z,102229.77
2019-01-10T21:25:18.473Z,102222.48
2019-01-10T21:27:47.157Z,102226.20
2019-01-10T21:30:18.373Z,102217.16
2019-01-10T21:32:47.810Z,102211.42
2019-01-10T21:35:16.423Z,102214.34
2019-01-10T21:37:44.877Z,102214.74
2019-01-10T21:40:19.171Z,102205.30
2019-01-10T21:42:48.905Z,102204.38
2019-01-10T21:45:19.089Z,102198.91
2019-01-10T21:47:47.720Z,102203.10
2019-01-10T21:50:22.138Z,102193.78
2019-01-10T21:52:50.601Z,102198.51
2019-01-10T21:55:19.043Z,102190.56
2019-01-10T21:57:47.673Z,102195.89
2019-01-10T22:00:19.515Z,102191.56
2019-01-10T22:02:47.974Z,102182.21
2019-01-10T22:05:16.412Z,102190.89
2019-01-10T22:07:45.143Z,102193.45
2019-01-10T22:10:13.958Z,102192.53
2019-01-10T22:12:42.448Z,102191.26
2019-01-10T22:15:15.543Z,102192.45
2019-01-10T22:17:43.986Z,102192.94
2019-01-10T22:20:20.461Z,102186.05
2019-01-10T22:22:49.135Z,102179.66
2019-01-10T22:25:17.600Z,102176.48
2019-01-10T22:27:46.040Z,102176.08
2019-01-10T22:30:19.736Z,102180.32
2019-01-10T22:32:48.444Z,102172.03
2019-01-10T22:35:18.941Z,102169.47
2019-01-10T22:37:47.453Z,102168.07
2019-01-10T22:40:18.435Z,102159.91
2019-01-10T22:42:46.946Z,102157.34
2019-01-10T22:45:16.455Z,102155.67
2019-01-10T22:47:44.893Z,102152.72
2019-01-10T22:50:15.998Z,102141.69
2019-01-10T22:52:44.442Z,102137.97
2019-01-10T22:55:14.254Z,102135.81
2019-01-10T22:57:42.688Z,102137.09
2019-01-10T23:00:57.081Z,102136.88
2019-01-10T23:03:25.865Z,102130.48
2019-01-10T23:05:54.338Z,102126.91
2019-01-10T23:08:22.777Z,102130.36
2019-01-10T23:10:51.242Z,102125.63
2019-01-10T23:13:19.680Z,102120.61
2019-01-10T23:15:48.150Z,102119.45
2019-01-10T23:18:16.593Z,102115.21
2019-01-10T23:20:48.338Z,102117.89
2019-01-10T23:23:16.781Z,102111.22
2019-01-10T23:25:50.059Z,102120.27
2019-01-10T23:28:18.590Z,102109.67
2019-01-10T23:30:49.683Z,102119.11
2019-01-10T23:33:20.681Z,102112.31
2019-01-10T23:35:52.051Z,102113.20
2019-01-10T23:38:24.164Z,102103.88
2019-01-10T23:40:52.622Z,102103.97
2019-01-10T23:43:21.068Z,102096.81
2019-01-10T23:45:49.534Z,102097.56
2019-01-10T23:48:17.976Z,102101.80
2019-01-10T23:50:46.516Z,102090.56
2019-01-10T23:53:14.954Z,102095.68
2019-01-10T23:55:43.425Z,102091.84
2019-01-10T23:58:11.864Z,102083.68
